メインページ
METAR-TAF:

METAR-TAF

空港 :

ベイルート, レバノン

緯度: 33-49N, 経度: 035-29E, 海抜: 29m

現時点の気象観測

当レポートは49分前の01:00(UTC)に作成
南東の風 3kt
気温 24°C
湿度 69%
気圧 1016 hPa
視程: 8000m

METAR: OLBA 160100Z 13003KT 8000 NSC 24/18 Q1016 NOSIG

時間: 04:49 (01:49 UTC)

予報

当レポートは3時間49分前の22:00(UTC)に作成
予報は16日の 00時(UTC)から 17日の 06時(UTC)まで有効
南/南東の風 4kt
視程: 8000m
高度3000ftの雲は散在している
高度8000ftの雲は散在している
確率 40% :
16日の 00時(UTC)から 17日の 06時(UTC)まで一時的に
小雨
16日の 06時(UTC)から 16日の 08時(UTC)まで徐々に
西/南西の風 10kt
高度2600ftの千切れ雲あり
確率 30% :
16日の 06時(UTC)から 16日の 24時(UTC)まで一時的に
南西の風 10kt、最大20ktの突風を伴う
高度2000ftの雲はほとんどない, 積乱雲.
高度2500ftの千切れ雲あり
激しい雷雨, 小雨
16日の 18時(UTC)から 16日の 20時(UTC)まで徐々に
南/南東の風 5kt

TAF: OLBA 152200Z 1600/1706 15004KT 8000 SCT030 SCT080 PROB40 TEMPO 1600/1706 -RA BECMG 1606/1608 24010KT BKN026 PROB30 TEMPO 1606/1624 23010G20KT -TSRA FEW020CB BKN025 BECMG 1618/1620 16005KT

4,000以上の空港の気象観測と天気予報(METAR報とTAF報)

利用可能な観測所は地図上に黄色い丸と赤い丸で示す。

丸の上にカーソルを重ねると観測所名を参照できる。

次にクリックすると気象観測と天気予報を参照できる。

マップの切り替え:黒色「×」印の緑ボタンをクリックして拡大、「-」印の緑ボタンをクリックして縮小、緑色の三角印をクリックして隣りの地図に切り替え


METAR-TAF: